Time;durP1;ratioP1;P1;durP2;ratioP2;P2;SDS_P1;SDS_P2;PMS_P1;PMS_P2;Temp;Humidity;BMP_temperature;BMP_pressure;BME280_temperature;BME280_humidity;BME280_pressure;Samples;Min_cycle;Max_cycle;Signal;HPM_P1;HPM_P2
2022/03/11 00:02:21;;;;;;;17.13;7.97;;;4.40;69.30;;;;;;5051195;28;20060;-66
2022/03/11 00:04:47;;;;;;;13.20;7.25;;;4.30;69.60;;;;;;5033698;28;20115;-67
2022/03/11 00:07:13;;;;;;;13.88;7.05;;;4.30;69.80;;;;;;5052740;28;20063;-66
2022/03/11 00:09:38;;;;;;;11.52;6.68;;;4.20;70.00;;;;;;5051962;28;20037;-67
2022/03/11 00:12:06;;;;;;;14.23;6.65;;;4.20;70.60;;;;;;5049539;28;20052;-66
2022/03/11 00:14:32;;;;;;;12.52;6.68;;;4.20;71.10;;;;;;5057978;28;20037;-67
2022/03/11 00:16:57;;;;;;;17.35;7.60;;;4.20;70.80;;;;;;5054590;28;20036;-67
2022/03/11 00:19:23;;;;;;;10.73;6.70;;;4.20;71.20;;;;;;5055221;28;20740;-66
2022/03/11 00:21:48;;;;;;;9.80;6.45;;;4.10;71.00;;;;;;5054225;28;20109;-67
2022/03/11 00:24:14;;;;;;;12.50;7.07;;;4.10;71.30;;;;;;5060174;28;20448;-67
2022/03/11 00:26:40;;;;;;;15.68;6.80;;;4.10;71.40;;;;;;5049423;28;20032;-65
2022/03/11 00:29:05;;;;;;;12.48;6.90;;;4.10;71.80;;;;;;5059247;28;20369;-66
2022/03/11 00:31:31;;;;;;;12.10;6.90;;;4.10;72.20;;;;;;5045780;28;20432;-66
2022/03/11 00:33:58;;;;;;;13.77;7.07;;;4.10;72.60;;;;;;5048149;28;20041;-66
2022/03/11 00:36:24;;;;;;;15.82;7.10;;;4.10;72.70;;;;;;5046346;28;20041;-67
2022/03/11 00:38:50;;;;;;;11.65;6.63;;;4.10;72.90;;;;;;5047126;28;20058;-67
2022/03/11 00:41:16;;;;;;;13.35;6.53;;;4.10;73.00;;;;;;5060698;28;20148;-67
2022/03/11 00:43:43;;;;;;;11.77;7.05;;;4.10;73.40;;;;;;5054937;28;20033;-67
2022/03/11 00:46:08;;;;;;;13.07;6.38;;;4.10;73.30;;;;;;5055820;28;20060;-66
2022/03/11 00:48:34;;;;;;;15.00;6.90;;;4.10;73.20;;;;;;5047787;28;20049;-66
2022/03/11 00:51:00;;;;;;;10.80;5.80;;;4.10;73.80;;;;;;5050518;28;20061;-66
2022/03/11 00:53:27;;;;;;;13.98;7.05;;;4.00;73.90;;;;;;5060754;28;20058;-66
2022/03/11 00:55:53;;;;;;;13.95;6.80;;;4.10;75.00;;;;;;5054718;28;20064;-66
2022/03/11 00:58:19;;;;;;;17.20;7.28;;;4.00;74.00;;;;;;5059729;28;20565;-67
2022/03/11 01:00:44;;;;;;;13.55;7.35;;;3.90;74.00;;;;;;5048676;28;20124;-66
2022/03/11 01:03:10;;;;;;;12.00;6.80;;;4.00;74.90;;;;;;5061865;28;20530;-66
2022/03/11 01:05:35;;;;;;;15.07;7.57;;;3.90;74.80;;;;;;5051281;28;21087;-66
2022/03/11 01:08:02;;;;;;;13.00;6.93;;;3.90;75.10;;;;;;5053649;28;20116;-67
2022/03/11 01:10:27;;;;;;;15.90;7.28;;;3.90;75.50;;;;;;5051792;28;20159;-66
2022/03/11 01:12:53;;;;;;;15.77;7.47;;;3.90;75.70;;;;;;5048332;28;20136;-66
2022/03/11 01:15:18;;;;;;;13.30;7.07;;;3.80;75.80;;;;;;5030796;28;20052;-66
2022/03/11 01:17:44;;;;;;;14.00;7.22;;;3.90;76.10;;;;;;5058918;28;20037;-67
2022/03/11 01:20:11;;;;;;;13.90;7.15;;;3.80;77.10;;;;;;5050042;28;20435;-67
2022/03/11 01:22:37;;;;;;;16.25;7.70;;;3.70;76.60;;;;;;5052529;28;20380;-67
2022/03/11 01:25:04;;;;;;;13.68;7.95;;;3.70;76.40;;;;;;5046074;28;20032;-67
2022/03/11 01:27:29;;;;;;;20.15;8.48;;;3.60;76.90;;;;;;5048355;28;20406;-66
2022/03/11 01:29:55;;;;;;;16.13;7.65;;;3.50;77.10;;;;;;5050690;28;20079;-67
2022/03/11 01:32:20;;;;;;;14.95;7.45;;;3.40;77.70;;;;;;5058257;28;20454;-67
2022/03/11 01:34:46;;;;;;;13.30;7.10;;;3.40;78.00;;;;;;5058324;28;20055;-66
2022/03/11 01:37:11;;;;;;;15.55;8.18;;;3.40;79.60;;;;;;5050743;28;20136;-66
2022/03/11 01:39:37;;;;;;;13.48;7.65;;;3.30;78.50;;;;;;5052547;28;20527;-67
2022/03/11 01:42:03;;;;;;;17.77;7.65;;;3.30;78.70;;;;;;5061946;28;20048;-66
2022/03/11 01:44:29;;;;;;;17.25;8.07;;;3.20;79.30;;;;;;5054831;28;20037;-66
2022/03/11 01:46:54;;;;;;;15.23;8.45;;;3.20;80.80;;;;;;5054654;28;20060;-66
2022/03/11 01:49:21;;;;;;;20.20;8.82;;;3.20;79.80;;;;;;5058027;28;20047;-66
2022/03/11 01:51:47;;;;;;;15.80;8.10;;;3.20;80.20;;;;;;5055339;28;20422;-66
2022/03/11 01:54:14;;;;;;;15.50;8.30;;;3.10;80.20;;;;;;5053136;28;20128;-66
2022/03/11 01:56:40;;;;;;;18.88;9.45;;;3.10;80.60;;;;;;5058542;28;20041;-66
2022/03/11 01:59:07;;;;;;;18.30;9.73;;;3.10;81.10;;;;;;5042401;28;20120;-67
2022/03/11 02:01:33;;;;;;;18.90;9.48;;;3.10;81.20;;;;;;5049567;28;20082;-66
2022/03/11 02:03:59;;;;;;;17.75;9.13;;;3.00;81.20;;;;;;5046719;28;20075;-66
2022/03/11 02:06:26;;;;;;;21.92;9.88;;;3.00;81.50;;;;;;5037354;28;20059;-67
2022/03/11 02:08:53;;;;;;;19.50;8.90;;;3.00;81.60;;;;;;5056888;28;20047;-66
2022/03/11 02:11:19;;;;;;;16.63;9.73;;;3.00;82.30;;;;;;5054150;28;20028;-67
2022/03/11 02:13:50;;;;;;;18.98;9.77;;;3.00;82.70;;;;;;5053385;28;20036;-66
2022/03/11 02:16:26;;;;;;;22.25;9.85;;;3.00;83.20;;;;;;5058432;28;20079;-66
2022/03/11 02:18:52;;;;;;;19.55;9.52;;;3.00;83.70;;;;;;5055293;28;20060;-66
2022/03/11 02:21:20;;;;;;;20.90;10.55;;;3.00;83.60;;;;;;5059632;28;20052;-67
2022/03/11 02:23:51;;;;;;;20.08;9.88;;;3.00;83.40;;;;;;5055469;28;20036;-67
2022/03/11 02:26:19;;;;;;;20.23;10.18;;;3.00;83.50;;;;;;5053730;28;20826;-66
2022/03/11 02:28:45;;;;;;;21.80;10.73;;;3.00;83.80;;;;;;5063644;28;20040;-66
2022/03/11 02:31:11;;;;;;;19.10;9.50;;;2.90;84.90;;;;;;5046055;28;20033;-66
2022/03/11 02:33:37;;;;;;;21.70;10.52;;;3.00;84.80;;;;;;5054851;28;20095;-66
2022/03/11 02:36:04;;;;;;;27.15;11.35;;;2.90;84.30;;;;;;5030405;28;20033;-66
2022/03/11 02:38:29;;;;;;;27.08;11.65;;;2.90;84.10;;;;;;5043034;28;20036;-67
2022/03/11 02:40:55;;;;;;;22.50;11.43;;;2.90;84.30;;;;;;5049010;28;20110;-66
2022/03/11 02:43:21;;;;;;;21.02;11.18;;;2.90;84.20;;;;;;5051488;28;20492;-65
2022/03/11 02:45:47;;;;;;;24.02;12.10;;;2.80;85.30;;;;;;5049559;28;20045;-66
2022/03/11 02:48:12;;;;;;;21.80;10.95;;;2.90;85.10;;;;;;5042183;28;20064;-66
2022/03/11 02:50:38;;;;;;;24.38;12.13;;;2.80;85.00;;;;;;5050211;28;20037;-66
2022/03/11 02:53:03;;;;;;;24.50;12.07;;;2.80;85.00;;;;;;5057101;28;20231;-66
2022/03/11 02:55:29;;;;;;;24.55;12.00;;;2.80;85.20;;;;;;5054647;28;20052;-66
2022/03/11 02:57:55;;;;;;;27.40;11.65;;;2.80;86.10;;;;;;5055565;28;20055;-66
2022/03/11 03:00:20;;;;;;;23.83;11.85;;;2.80;85.40;;;;;;5053490;28;20033;-66
2022/03/11 03:02:46;;;;;;;29.65;13.60;;;2.80;86.70;;;;;;5053650;28;20052;-66
2022/03/11 03:05:13;;;;;;;26.55;13.35;;;2.80;85.80;;;;;;5052439;28;20045;-65
2022/03/11 03:07:39;;;;;;;28.67;11.68;;;2.80;85.80;;;;;;5061703;28;20238;-65
2022/03/11 03:10:06;;;;;;;25.95;11.68;;;2.80;86.10;;;;;;5060672;28;20545;-66
2022/03/11 03:12:31;;;;;;;26.17;12.30;;;2.80;87.40;;;;;;5061506;28;20059;-66
2022/03/11 03:14:57;;;;;;;27.73;13.48;;;2.80;86.00;;;;;;5065247;28;20052;-66
2022/03/11 03:17:22;;;;;;;27.30;13.43;;;2.70;86.10;;;;;;5052023;28;20516;-67
2022/03/11 03:19:48;;;;;;;28.23;12.93;;;2.70;85.80;;;;;;5063374;28;20057;-65
2022/03/11 03:22:14;;;;;;;26.30;12.82;;;2.60;86.10;;;;;;5065153;28;20175;-66
2022/03/11 03:24:40;;;;;;;31.45;14.43;;;2.60;86.00;;;;;;5058016;28;20048;-66
2022/03/11 03:27:05;;;;;;;27.15;13.02;;;2.50;86.70;;;;;;5052845;28;20049;-66
2022/03/11 03:29:31;;;;;;;25.98;13.13;;;2.50;88.20;;;;;;5057529;28;20029;-66
2022/03/11 03:31:58;;;;;;;27.15;13.88;;;2.50;86.60;;;;;;5059397;28;20048;-65
2022/03/11 03:34:29;;;;;;;24.27;12.55;;;2.50;86.70;;;;;;5050487;28;20134;-66
2022/03/11 03:36:56;;;;;;;31.60;13.13;;;2.50;87.80;;;;;;5054085;28;21019;-67
2022/03/11 03:39:21;;;;;;;28.73;13.73;;;2.50;87.90;;;;;;5030768;28;20376;-66
2022/03/11 03:41:47;;;;;;;30.23;13.90;;;2.50;87.10;;;;;;5048707;28;20048;-66
2022/03/11 03:44:12;;;;;;;31.17;15.00;;;2.50;88.40;;;;;;5064769;28;20033;-65
2022/03/11 03:46:38;;;;;;;30.95;14.57;;;2.50;87.80;;;;;;5057441;28;20107;-66
2022/03/11 03:49:03;;;;;;;28.17;14.25;;;2.50;87.50;;;;;;5053115;28;20107;-66
2022/03/11 03:51:29;;;;;;;28.95;14.20;;;2.50;88.10;;;;;;5062898;28;20148;-65
2022/03/11 03:53:54;;;;;;;27.90;14.15;;;2.40;87.90;;;;;;5052115;28;20043;-65
2022/03/11 03:56:20;;;;;;;33.92;14.85;;;2.50;88.00;;;;;;5045793;28;20029;-66
2022/03/11 03:58:45;;;;;;;33.03;14.77;;;2.40;87.80;;;;;;5051488;28;20037;-67
2022/03/11 04:01:11;;;;;;;32.97;13.88;;;2.40;87.30;;;;;;5059320;28;20485;-66
2022/03/11 04:03:36;;;;;;;31.92;14.40;;;2.30;88.30;;;;;;5056809;28;20371;-66
2022/03/11 04:06:02;;;;;;;31.83;14.13;;;2.30;87.70;;;;;;5035798;28;20470;-67
2022/03/11 04:08:28;;;;;;;29.65;15.55;;;2.40;89.40;;;;;;5030645;28;20041;-65
2022/03/11 04:10:54;;;;;;;32.42;15.35;;;2.30;87.80;;;;;;5053963;28;20504;-65
2022/03/11 04:13:19;;;;;;;31.15;14.30;;;2.30;88.30;;;;;;5048066;28;20112;-66
2022/03/11 04:15:45;;;;;;;31.42;13.90;;;2.30;88.00;;;;;;5049077;28;20041;-66
2022/03/11 04:18:10;;;;;;;30.52;14.95;;;2.20;87.80;;;;;;5045247;28;20127;-65
2022/03/11 04:20:36;;;;;;;29.85;14.50;;;2.10;87.80;;;;;;5056233;28;20072;-66
2022/03/11 04:23:01;;;;;;;35.17;15.73;;;2.10;88.50;;;;;;5047462;28;20102;-65
2022/03/11 04:25:27;;;;;;;31.70;14.55;;;2.10;88.60;;;;;;5051086;28;20365;-66
2022/03/11 04:27:52;;;;;;;31.45;14.52;;;2.00;88.80;;;;;;5054677;28;20190;-66
2022/03/11 04:30:18;;;;;;;34.95;15.57;;;2.10;89.50;;;;;;5055767;28;20043;-66
2022/03/11 04:32:44;;;;;;;32.80;15.50;;;2.10;89.60;;;;;;5053860;28;20040;-66
2022/03/11 04:35:09;;;;;;;33.15;15.40;;;2.10;89.50;;;;;;5064702;28;20032;-65
2022/03/11 04:37:35;;;;;;;34.35;15.50;;;2.00;89.50;;;;;;5037642;28;20154;-66
2022/03/11 04:40:01;;;;;;;31.02;14.45;;;1.90;89.00;;;;;;5047612;28;20059;-65
2022/03/11 04:42:27;;;;;;;34.40;15.98;;;1.90;89.50;;;;;;5055029;28;20036;-66
2022/03/11 04:44:52;;;;;;;30.40;15.32;;;1.90;89.70;;;;;;5034212;28;20048;-66
2022/03/11 04:47:18;;;;;;;31.85;15.75;;;1.90;89.20;;;;;;5053579;28;20036;-65
2022/03/11 04:49:43;;;;;;;30.65;15.45;;;1.90;89.40;;;;;;5059784;28;20155;-65
2022/03/11 04:52:09;;;;;;;33.80;16.02;;;1.80;89.80;;;;;;5047147;28;20372;-65
2022/03/11 04:54:34;;;;;;;34.80;15.43;;;1.80;89.80;;;;;;5055441;28;20383;-66
2022/03/11 04:57:00;;;;;;;30.15;14.70;;;2.00;90.20;;;;;;5047774;28;20476;-66
2022/03/11 04:59:26;;;;;;;29.10;14.10;;;1.90;89.70;;;;;;5054061;28;20110;-65
2022/03/11 05:01:52;;;;;;;35.13;15.48;;;1.80;89.80;;;;;;5048973;28;20045;-66
2022/03/11 05:04:17;;;;;;;34.13;14.55;;;1.80;90.10;;;;;;5061588;28;20119;-66
2022/03/11 05:06:43;;;;;;;29.80;15.00;;;1.80;89.30;;;;;;5057520;28;20036;-66
2022/03/11 05:09:08;;;;;;;33.78;15.00;;;1.80;89.30;;;;;;5055311;28;20459;-65
2022/03/11 05:11:34;;;;;;;34.72;16.45;;;1.80;90.00;;;;;;5049435;28;20040;-65
2022/03/11 05:13:59;;;;;;;29.83;14.35;;;1.80;89.90;;;;;;5037144;28;20044;-65
2022/03/11 05:16:25;;;;;;;27.17;14.05;;;1.80;89.60;;;;;;5032373;28;20041;-66
2022/03/11 05:18:53;;;;;;;30.52;14.20;;;1.80;89.50;;;;;;5049730;28;20158;-65
2022/03/11 05:21:22;;;;;;;29.80;14.60;;;1.80;89.80;;;;;;5048963;28;20128;-65
2022/03/11 05:23:48;;;;;;;37.25;15.10;;;1.80;89.80;;;;;;5047043;28;20037;-65
2022/03/11 05:26:26;;;;;;;32.63;14.98;;;1.80;89.20;;;;;;5062979;28;20063;-65
2022/03/11 05:28:57;;;;;;;33.33;15.65;;;1.80;89.40;;;;;;5033238;28;20045;-65
2022/03/11 05:31:24;;;;;;;31.02;14.32;;;1.80;89.60;;;;;;5053716;28;20068;-65
2022/03/11 05:33:50;;;;;;;33.70;14.95;;;1.80;89.30;;;;;;5061965;28;20103;-65
2022/03/11 05:36:16;;;;;;;29.55;15.35;;;1.70;89.50;;;;;;5049687;28;20036;-66
2022/03/11 05:38:42;;;;;;;33.05;14.15;;;1.70;89.70;;;;;;5046589;28;20109;-66
2022/03/11 05:41:08;;;;;;;33.45;15.80;;;1.70;89.40;;;;;;5044814;28;20234;-66
2022/03/11 05:43:34;;;;;;;35.08;14.60;;;1.70;90.10;;;;;;5053470;28;20110;-66
2022/03/11 05:45:59;;;;;;;30.48;14.27;;;1.60;89.70;;;;;;5058907;28;20064;-66
2022/03/11 05:48:25;;;;;;;32.47;14.75;;;1.50;90.00;;;;;;5053449;28;20036;-66
2022/03/11 05:50:50;;;;;;;28.33;14.55;;;1.60;90.20;;;;;;5046670;28;20383;-66
2022/03/11 05:53:16;;;;;;;34.42;14.73;;;1.60;90.20;;;;;;5049921;28;20071;-66
2022/03/11 05:55:42;;;;;;;32.10;14.32;;;1.60;89.60;;;;;;5054792;28;20041;-65
2022/03/11 05:58:07;;;;;;;32.28;14.88;;;1.60;90.00;;;;;;5063377;28;20037;-64
2022/03/11 06:00:33;;;;;;;32.78;15.65;;;1.60;89.90;;;;;;5041715;28;20179;-65
2022/03/11 06:02:58;;;;;;;31.20;14.23;;;1.60;90.10;;;;;;5049365;28;20040;-64
2022/03/11 06:05:24;;;;;;;30.92;14.95;;;1.60;90.10;;;;;;5052272;28;20070;-64
2022/03/11 06:07:50;;;;;;;33.42;15.30;;;1.50;89.60;;;;;;5027541;28;20041;-65
2022/03/11 06:10:15;;;;;;;36.10;15.93;;;1.60;89.80;;;;;;5049846;28;20052;-65
2022/03/11 06:12:41;;;;;;;38.53;14.80;;;1.60;90.00;;;;;;5055488;28;20044;-64
2022/03/11 06:15:08;;;;;;;35.40;16.13;;;1.60;89.90;;;;;;5047086;28;20147;-66
2022/03/11 06:17:34;;;;;;;29.83;14.57;;;1.60;90.00;;;;;;5048266;28;20100;-66
2022/03/11 06:20:00;;;;;;;30.52;14.38;;;1.60;89.30;;;;;;5055451;28;20037;-65
2022/03/11 06:22:25;;;;;;;31.00;13.88;;;1.60;89.30;;;;;;5060299;28;20041;-65
2022/03/11 06:24:51;;;;;;;30.17;14.18;;;1.70;89.50;;;;;;5053689;28;20050;-65
2022/03/11 06:27:16;;;;;;;29.80;13.93;;;1.70;89.50;;;;;;5060784;28;20400;-65
2022/03/11 06:29:43;;;;;;;27.88;13.73;;;1.70;89.40;;;;;;5043038;28;20341;-66
2022/03/11 06:32:08;;;;;;;29.52;14.10;;;1.80;88.90;;;;;;5057012;28;20049;-65
2022/03/11 06:34:35;;;;;;;28.13;13.93;;;1.90;88.50;;;;;;5052486;28;20089;-65
2022/03/11 06:37:00;;;;;;;32.08;13.45;;;2.00;88.60;;;;;;5052104;28;20044;-66
2022/03/11 06:39:26;;;;;;;34.47;15.50;;;2.10;88.30;;;;;;5054230;28;20136;-65
2022/03/11 06:41:52;;;;;;;31.08;14.77;;;2.20;88.20;;;;;;5055339;28;20044;-65
2022/03/11 06:44:18;;;;;;;31.05;14.77;;;2.30;88.00;;;;;;5060208;28;20049;-66
2022/03/11 06:46:43;;;;;;;28.30;14.35;;;2.40;87.50;;;;;;5052244;28;20123;-66
2022/03/11 06:49:09;;;;;;;31.02;15.85;;;2.60;87.40;;;;;;5059438;28;20139;-66
2022/03/11 06:51:35;;;;;;;28.92;14.63;;;2.70;87.00;;;;;;5048416;28;20048;-66
2022/03/11 06:54:01;;;;;;;26.20;13.77;;;2.90;86.50;;;;;;5036999;28;20052;-66
2022/03/11 06:56:26;;;;;;;32.95;15.30;;;3.00;86.00;;;;;;5062437;28;20062;-65
2022/03/11 06:58:52;;;;;;;27.70;14.55;;;3.10;84.60;;;;;;5051012;28;20063;-67
2022/03/11 07:01:18;;;;;;;25.65;13.68;;;3.20;84.60;;;;;;5058953;28;20064;-65
2022/03/11 07:03:44;;;;;;;28.85;15.02;;;3.20;84.30;;;;;;5053262;28;20064;-65
2022/03/11 07:06:10;;;;;;;30.58;15.20;;;3.40;84.00;;;;;;5064171;28;20072;-66
2022/03/11 07:08:35;;;;;;;31.25;14.85;;;3.60;83.90;;;;;;5058914;28;20341;-67
2022/03/11 07:11:02;;;;;;;27.70;14.75;;;3.80;82.60;;;;;;5055537;28;20128;-66
2022/03/11 07:13:28;;;;;;;30.98;15.90;;;4.00;81.20;;;;;;5059794;28;20095;-66
2022/03/11 07:15:56;;;;;;;27.98;14.60;;;4.20;81.40;;;;;;5057119;28;20085;-66
2022/03/11 07:18:21;;;;;;;30.67;14.52;;;4.40;80.70;;;;;;5053916;28;20040;-66
2022/03/11 07:20:47;;;;;;;31.00;16.17;;;4.60;79.90;;;;;;5060945;28;20102;-66
2022/03/11 07:23:13;;;;;;;29.88;15.25;;;4.80;78.40;;;;;;5050217;28;20119;-68
2022/03/11 07:25:38;;;;;;;28.08;15.18;;;4.90;77.70;;;;;;5058397;28;20049;-65
2022/03/11 07:28:04;;;;;;;30.23;14.80;;;5.10;76.90;;;;;;5054143;28;20451;-65
2022/03/11 07:30:30;;;;;;;29.05;16.00;;;5.30;76.20;;;;;;5068919;28;20575;-66
2022/03/11 07:32:55;;;;;;;29.45;15.23;;;5.50;75.00;;;;;;5052433;28;20033;-66
2022/03/11 07:35:21;;;;;;;29.42;14.10;;;5.70;73.20;;;;;;5057286;28;20041;-66
2022/03/11 07:37:46;;;;;;;26.60;15.00;;;5.80;72.90;;;;;;5052904;28;20104;-67
2022/03/11 07:40:12;;;;;;;28.27;15.55;;;5.90;73.20;;;;;;5057636;28;20040;-68
2022/03/11 07:42:42;;;;;;;29.92;14.55;;;6.10;72.70;;;;;;5052397;28;20041;-67
2022/03/11 07:45:10;;;;;;;28.47;15.27;;;6.30;70.80;;;;;;5053040;28;20045;-67
2022/03/11 07:47:36;;;;;;;26.88;15.88;;;6.20;70.10;;;;;;5050487;28;20044;-66
2022/03/11 07:50:02;;;;;;;25.30;14.90;;;6.10;70.40;;;;;;5043810;28;20055;-70
2022/03/11 07:52:27;;;;;;;29.00;15.13;;;6.20;70.50;;;;;;5063358;28;20032;-66
2022/03/11 07:54:53;;;;;;;30.10;16.02;;;6.10;71.80;;;;;;5064578;28;20039;-67
2022/03/11 07:57:18;;;;;;;31.45;15.30;;;6.10;70.90;;;;;;5035747;28;20044;-66
2022/03/11 07:59:44;;;;;;;25.40;14.02;;;6.00;69.70;;;;;;5040323;28;20037;-66
2022/03/11 08:02:10;;;;;;;30.33;15.00;;;6.00;69.60;;;;;;5036849;28;20045;-67
2022/03/11 08:04:35;;;;;;;29.00;14.93;;;6.10;68.90;;;;;;5061161;28;20083;-66
2022/03/11 08:07:06;;;;;;;28.30;14.73;;;6.30;69.30;;;;;;5064530;28;20057;-71
2022/03/11 08:09:33;;;;;;;27.90;14.63;;;6.50;67.90;;;;;;5058387;28;20064;-65
2022/03/11 08:11:58;;;;;;;30.33;15.68;;;6.80;66.40;;;;;;5057777;28;20098;-66
2022/03/11 08:14:24;;;;;;;25.73;14.68;;;6.80;65.80;;;;;;5058957;28;20029;-66
2022/03/11 08:16:49;;;;;;;32.15;15.63;;;6.80;65.30;;;;;;5062657;28;20083;-66
2022/03/11 08:19:15;;;;;;;27.98;15.20;;;6.80;65.00;;;;;;5067402;28;20063;-66
2022/03/11 08:21:41;;;;;;;24.63;14.73;;;6.60;63.50;;;;;;5055980;28;20105;-67
2022/03/11 08:24:07;;;;;;;28.75;14.60;;;6.40;64.80;;;;;;5054818;28;20078;-69
2022/03/11 08:26:32;;;;;;;29.60;15.13;;;6.40;66.10;;;;;;5050995;28;20401;-67
2022/03/11 08:28:58;;;;;;;26.80;14.70;;;6.30;65.50;;;;;;5048931;28;20040;-70
2022/03/11 08:31:24;;;;;;;28.27;14.88;;;6.10;64.90;;;;;;5033304;28;20511;-68
2022/03/11 08:33:49;;;;;;;26.40;14.95;;;6.10;65.50;;;;;;5061364;28;20392;-65
2022/03/11 08:36:15;;;;;;;28.15;14.38;;;6.00;65.00;;;;;;5068066;28;20189;-64
2022/03/11 08:38:41;;;;;;;31.15;15.32;;;6.00;65.60;;;;;;5030204;28;20175;-67
2022/03/11 08:41:08;;;;;;;26.45;14.55;;;6.00;65.20;;;;;;5041807;28;20037;-67
2022/03/11 08:43:38;;;;;;;24.15;14.25;;;6.00;64.90;;;;;;5038225;28;20041;-66
2022/03/11 08:46:04;;;;;;;29.30;15.10;;;6.10;64.90;;;;;;5052136;28;20056;-67
2022/03/11 08:48:29;;;;;;;29.70;14.60;;;6.10;64.50;;;;;;5063402;28;20119;-68
2022/03/11 08:50:55;;;;;;;28.80;14.60;;;6.20;64.10;;;;;;5066032;28;20205;-65
2022/03/11 08:53:21;;;;;;;31.00;15.32;;;6.20;64.50;;;;;;5065050;28;20036;-66
2022/03/11 08:55:46;;;;;;;27.27;14.93;;;6.20;63.80;;;;;;5054703;28;20230;-66
2022/03/11 08:58:12;;;;;;;26.48;13.70;;;6.40;64.40;;;;;;5042236;28;20048;-68
2022/03/11 09:00:37;;;;;;;27.35;14.70;;;6.60;64.70;;;;;;5058105;28;20087;-67
2022/03/11 09:03:03;;;;;;;25.92;13.27;;;6.80;63.40;;;;;;5047492;28;20138;-67
2022/03/11 09:05:28;;;;;;;29.92;12.75;;;6.90;62.10;;;;;;5064869;28;20124;-67
2022/03/11 09:07:56;;;;;;;31.00;15.23;;;7.00;62.20;;;;;;5050904;28;20384;-69
2022/03/11 09:10:22;;;;;;;25.77;13.30;;;7.10;61.70;;;;;;5048072;28;20072;-68
2022/03/11 09:12:47;;;;;;;28.10;15.00;;;7.00;60.20;;;;;;5050187;28;20118;-66
2022/03/11 09:15:14;;;;;;;32.08;15.65;;;7.00;62.60;;;;;;5046910;28;20052;-69
2022/03/11 09:17:40;;;;;;;25.73;14.23;;;7.10;62.20;;;;;;5046244;28;20143;-70
2022/03/11 09:20:07;;;;;;;25.98;13.50;;;7.00;61.70;;;;;;5052325;28;20128;-69
2022/03/11 09:22:34;;;;;;;29.40;13.65;;;7.00;60.80;;;;;;5059025;28;20119;-65
2022/03/11 09:25:01;;;;;;;26.73;13.55;;;7.10;62.10;;;;;;5059360;28;20334;-65
2022/03/11 09:27:29;;;;;;;26.00;14.32;;;7.20;62.10;;;;;;5056430;28;20045;-68
2022/03/11 09:29:55;;;;;;;29.40;14.98;;;7.20;61.00;;;;;;5055576;28;20154;-68
2022/03/11 09:32:20;;;;;;;26.52;14.50;;;7.20;60.80;;;;;;5046286;28;20046;-66
2022/03/11 09:34:46;;;;;;;25.70;14.35;;;7.20;59.30;;;;;;5052993;28;20112;-67
2022/03/11 09:37:12;;;;;;;27.05;14.30;;;7.20;59.70;;;;;;5056608;28;20144;-70
2022/03/11 09:39:37;;;;;;;24.95;12.65;;;7.30;60.10;;;;;;5046348;28;20040;-68
2022/03/11 09:42:04;;;;;;;24.23;13.70;;;7.40;60.60;;;;;;5064562;28;20072;-67
2022/03/11 09:44:29;;;;;;;25.17;13.77;;;7.50;59.20;;;;;;5050568;28;20080;-65
2022/03/11 09:46:55;;;;;;;30.98;14.63;;;7.50;59.70;;;;;;5035374;28;20083;-66
2022/03/11 09:49:21;;;;;;;26.35;13.70;;;7.60;60.40;;;;;;5064155;28;20045;-68
2022/03/11 09:51:47;;;;;;;28.35;14.32;;;7.70;59.60;;;;;;5048860;28;20143;-66
2022/03/11 09:54:14;;;;;;;27.33;14.60;;;7.70;57.90;;;;;;5047145;28;20041;-67
2022/03/11 09:56:42;;;;;;;28.13;14.63;;;7.70;58.30;;;;;;5063221;28;20147;-66
2022/03/11 09:59:08;;;;;;;24.77;13.57;;;7.70;58.60;;;;;;5056887;28;20115;-66
2022/03/11 10:01:34;;;;;;;29.17;15.02;;;7.70;57.50;;;;;;5059070;28;20036;-66
2022/03/11 10:04:03;;;;;;;29.60;14.25;;;7.80;57.20;;;;;;5056310;28;20113;-65
2022/03/11 10:06:46;;;;;;;27.77;13.88;;;7.80;56.60;;;;;;5060608;28;20035;-70
2022/03/11 10:09:18;;;;;;;25.88;14.30;;;7.80;56.50;;;;;;5034644;28;20068;-65
2022/03/11 10:11:46;;;;;;;27.77;15.35;;;7.90;57.10;;;;;;5050648;28;20540;-67
2022/03/11 10:14:11;;;;;;;25.67;14.13;;;8.00;56.50;;;;;;5053367;28;20036;-66
2022/03/11 10:16:38;;;;;;;28.92;14.60;;;8.00;55.80;;;;;;5051283;28;20041;-66
2022/03/11 10:19:10;;;;;;;25.63;13.13;;;8.10;56.40;;;;;;5052166;28;20079;-71
2022/03/11 10:21:44;;;;;;;29.70;14.45;;;8.20;56.10;;;;;;5049480;28;20535;-68
2022/03/11 10:24:12;;;;;;;25.55;14.23;;;8.30;55.30;;;;;;5049993;28;20362;-69
2022/03/11 10:26:44;;;;;;;29.27;14.73;;;8.40;55.70;;;;;;5056575;28;20044;-65
2022/03/11 10:29:15;;;;;;;29.50;14.90;;;8.50;54.90;;;;;;5059452;28;20114;-68
2022/03/11 10:31:43;;;;;;;26.02;13.95;;;8.50;54.70;;;;;;5060434;28;20040;-67
2022/03/11 10:34:12;;;;;;;24.13;13.88;;;8.50;52.70;;;;;;5056786;28;20041;-71
2022/03/11 10:36:44;;;;;;;29.33;14.63;;;8.50;52.00;;;;;;5037726;28;20052;-67
2022/03/11 10:39:20;;;;;;;25.33;14.43;;;8.60;52.60;;;;;;5060610;28;20082;-68
2022/03/11 10:41:49;;;;;;;33.33;15.27;;;8.70;52.40;;;;;;5060502;28;20044;-67
2022/03/11 10:44:17;;;;;;;24.33;13.32;;;8.80;53.80;;;;;;5047210;28;20098;-66
2022/03/11 10:46:43;;;;;;;27.42;13.20;;;8.80;51.70;;;;;;5070391;28;20100;-67
2022/03/11 10:49:09;;;;;;;26.63;14.00;;;8.70;50.80;;;;;;5070423;28;20499;-66
2022/03/11 10:51:37;;;;;;;25.58;13.57;;;8.70;49.70;;;;;;5060005;28;20045;-70
2022/03/11 10:54:06;;;;;;;23.75;13.90;;;8.80;51.40;;;;;;5031925;28;20037;-71
2022/03/11 10:56:39;;;;;;;26.85;13.18;;;8.90;50.60;;;;;;5053250;28;20032;-67
2022/03/11 10:59:22;;;;;;;24.13;12.50;;;9.00;50.60;;;;;;5045602;28;20146;-68
2022/03/11 11:01:51;;;;;;;24.80;13.40;;;9.10;49.80;;;;;;5056229;28;20048;-69
2022/03/11 11:04:17;;;;;;;24.42;12.52;;;9.00;49.10;;;;;;5053771;28;20045;-66
2022/03/11 11:06:44;;;;;;;25.60;12.80;;;9.00;49.90;;;;;;5055774;28;20047;-72
2022/03/11 11:09:11;;;;;;;22.48;13.82;;;9.20;49.30;;;;;;5066779;28;20094;-66
2022/03/11 11:11:38;;;;;;;23.92;12.95;;;9.20;50.00;;;;;;5061374;28;20041;-67
2022/03/11 11:14:07;;;;;;;24.52;14.25;;;9.20;50.00;;;;;;5066796;28;20080;-65
2022/03/11 11:16:40;;;;;;;28.63;13.53;;;9.30;50.50;;;;;;5066092;28;20425;-67
2022/03/11 11:19:12;;;;;;;25.35;12.52;;;9.30;49.70;;;;;;5059562;28;20729;-68
2022/03/11 11:21:39;;;;;;;25.00;14.35;;;9.40;48.40;;;;;;5057578;28;20076;-66
2022/03/11 11:24:13;;;;;;;24.15;13.50;;;9.50;49.10;;;;;;5057601;28;20049;-70
2022/03/11 11:26:40;;;;;;;22.13;13.10;;;9.50;49.00;;;;;;5069855;28;20044;-69
2022/03/11 11:29:06;;;;;;;23.60;12.82;;;9.60;49.50;;;;;;5061193;28;20131;-67
2022/03/11 11:31:32;;;;;;;23.65;13.13;;;9.60;49.00;;;;;;5049006;28;20456;-68
2022/03/11 11:33:57;;;;;;;21.98;12.75;;;9.80;49.50;;;;;;5048830;28;20033;-67
2022/03/11 11:36:38;;;;;;;25.33;12.43;;;9.90;50.00;;;;;;5057417;28;20033;-65
2022/03/11 11:39:08;;;;;;;24.98;14.13;;;9.90;49.20;;;;;;5049661;28;20052;-68
2022/03/11 11:41:35;;;;;;;21.55;12.35;;;9.80;49.10;;;;;;5049372;28;20048;-65
2022/03/11 11:44:05;;;;;;;19.20;10.60;;;9.80;49.30;;;;;;5051907;28;20836;-72
2022/03/11 11:46:33;;;;;;;21.20;11.90;;;9.90;48.20;;;;;;5063039;28;20381;-69
2022/03/11 11:49:13;;;;;;;24.90;12.35;;;9.80;48.20;;;;;;5051741;28;20062;-66
2022/03/11 11:51:39;;;;;;;25.23;12.77;;;9.80;48.40;;;;;;5067093;28;20047;-67
2022/03/11 11:54:09;;;;;;;23.33;12.43;;;9.90;49.10;;;;;;5066059;28;20036;-70
2022/03/11 11:56:36;;;;;;;21.40;12.07;;;9.90;46.80;;;;;;5066807;28;20033;-67
2022/03/11 11:59:19;;;;;;;24.33;11.73;;;9.90;47.80;;;;;;5054915;28;20400;-66
2022/03/11 12:01:52;;;;;;;25.58;12.57;;;9.90;47.00;;;;;;5065128;28;20033;-67
2022/03/11 12:04:28;;;;;;;24.77;13.38;;;10.00;48.20;;;;;;5049612;28;20051;-71
2022/03/11 12:06:58;;;;;;;25.52;13.15;;;10.00;47.40;;;;;;5048488;28;20655;-68
2022/03/11 12:09:51;;;;;;;22.92;12.02;;;10.20;47.90;;;;;;5050081;28;20476;-68
2022/03/11 12:12:19;;;;;;;21.90;12.10;;;10.30;45.40;;;;;;5067689;28;20053;-72
2022/03/11 12:14:57;;;;;;;22.38;11.18;;;10.30;45.60;;;;;;5069417;28;20464;-65
2022/03/11 12:17:35;;;;;;;22.95;12.32;;;10.40;43.90;;;;;;5055564;28;20048;-68
2022/03/11 12:23:19;;;;;;;19.80;11.40;;;10.60;45.50;;;;;;5046838;28;20041;-68
2022/03/11 12:25:54;;;;;;;19.17;11.13;;;10.60;42.80;;;;;;5064883;28;20093;-68
2022/03/11 12:28:28;;;;;;;20.67;12.10;;;10.80;44.70;;;;;;5062401;28;20044;-67
2022/03/11 12:31:05;;;;;;;21.02;11.48;;;10.90;44.80;;;;;;5050243;28;20041;-68
2022/03/11 12:33:40;;;;;;;20.90;11.38;;;10.90;44.10;;;;;;5050970;28;21629;-74
2022/03/11 12:36:11;;;;;;;20.98;12.23;;;11.10;44.30;;;;;;5052827;28;20128;-70
2022/03/11 12:38:38;;;;;;;21.83;12.43;;;11.10;44.00;;;;;;5030017;28;20090;-67
2022/03/11 12:41:15;;;;;;;19.75;10.85;;;11.00;43.30;;;;;;5054332;28;20627;-66